sensor_id;sensor_type;location;lat;lon;timestamp;P1;durP1;ratioP1;P2;durP2;ratioP2
7410;SDS011;3747;48.628;9.058;2024-01-30T00:00:01;5.80;;;4.70;;
7410;SDS011;3747;48.628;9.058;2024-01-30T00:02:29;6.37;;;4.83;;
7410;SDS011;3747;48.628;9.058;2024-01-30T00:04:56;4.97;;;4.47;;
7410;SDS011;3747;48.628;9.058;2024-01-30T00:07:23;4.87;;;4.33;;
7410;SDS011;3747;48.628;9.058;2024-01-30T00:09:49;5.13;;;4.63;;
7410;SDS011;3747;48.628;9.058;2024-01-30T00:12:16;6.50;;;4.77;;
7410;SDS011;3747;48.628;9.058;2024-01-30T00:14:43;7.40;;;5.37;;
7410;SDS011;3747;48.628;9.058;2024-01-30T00:17:09;7.47;;;5.47;;
7410;SDS011;3747;48.628;9.058;2024-01-30T00:19:37;6.37;;;5.03;;
7410;SDS011;3747;48.628;9.058;2024-01-30T00:22:04;6.20;;;4.43;;
7410;SDS011;3747;48.628;9.058;2024-01-30T00:24:31;4.53;;;4.13;;
7410;SDS011;3747;48.628;9.058;2024-01-30T00:26:57;7.63;;;4.67;;
7410;SDS011;3747;48.628;9.058;2024-01-30T00:29:24;5.23;;;3.73;;
7410;SDS011;3747;48.628;9.058;2024-01-30T00:31:55;4.43;;;4.03;;
7410;SDS011;3747;48.628;9.058;2024-01-30T00:34:22;4.20;;;3.57;;
7410;SDS011;3747;48.628;9.058;2024-01-30T00:36:50;4.70;;;4.03;;
7410;SDS011;3747;48.628;9.058;2024-01-30T00:39:16;3.73;;;3.33;;
7410;SDS011;3747;48.628;9.058;2024-01-30T00:41:44;4.53;;;4.03;;
7410;SDS011;3747;48.628;9.058;2024-01-30T00:44:11;4.83;;;3.53;;
7410;SDS011;3747;48.628;9.058;2024-01-30T00:46:38;3.67;;;3.00;;
7410;SDS011;3747;48.628;9.058;2024-01-30T00:49:04;4.40;;;4.00;;
7410;SDS011;3747;48.628;9.058;2024-01-30T00:51:31;3.83;;;3.53;;
7410;SDS011;3747;48.628;9.058;2024-01-30T00:53:59;4.13;;;3.20;;
7410;SDS011;3747;48.628;9.058;2024-01-30T00:56:26;4.83;;;3.63;;
7410;SDS011;3747;48.628;9.058;2024-01-30T00:58:52;3.97;;;3.57;;
7410;SDS011;3747;48.628;9.058;2024-01-30T01:01:19;4.40;;;3.03;;
7410;SDS011;3747;48.628;9.058;2024-01-30T01:03:46;5.07;;;3.03;;
7410;SDS011;3747;48.628;9.058;2024-01-30T01:06:13;3.50;;;3.20;;
7410;SDS011;3747;48.628;9.058;2024-01-30T01:08:40;4.53;;;3.60;;
7410;SDS011;3747;48.628;9.058;2024-01-30T01:11:08;4.03;;;3.27;;
7410;SDS011;3747;48.628;9.058;2024-01-30T01:13:34;4.63;;;3.80;;
7410;SDS011;3747;48.628;9.058;2024-01-30T01:16:01;5.80;;;3.80;;
7410;SDS011;3747;48.628;9.058;2024-01-30T01:18:28;4.17;;;3.37;;
7410;SDS011;3747;48.628;9.058;2024-01-30T01:20:55;4.10;;;3.70;;
7410;SDS011;3747;48.628;9.058;2024-01-30T01:23:22;4.40;;;3.47;;
7410;SDS011;3747;48.628;9.058;2024-01-30T01:25:48;4.17;;;3.77;;
7410;SDS011;3747;48.628;9.058;2024-01-30T01:28:16;5.73;;;3.90;;
7410;SDS011;3747;48.628;9.058;2024-01-30T01:30:43;4.77;;;3.97;;
7410;SDS011;3747;48.628;9.058;2024-01-30T01:33:10;4.73;;;3.83;;
7410;SDS011;3747;48.628;9.058;2024-01-30T01:35:39;4.73;;;4.00;;
7410;SDS011;3747;48.628;9.058;2024-01-30T01:38:05;4.67;;;4.00;;
7410;SDS011;3747;48.628;9.058;2024-01-30T01:40:32;4.70;;;4.10;;
7410;SDS011;3747;48.628;9.058;2024-01-30T01:43:02;6.00;;;4.63;;
7410;SDS011;3747;48.628;9.058;2024-01-30T01:45:31;4.93;;;4.10;;
7410;SDS011;3747;48.628;9.058;2024-01-30T01:47:57;4.90;;;4.30;;
7410;SDS011;3747;48.628;9.058;2024-01-30T01:50:24;6.43;;;4.63;;
7410;SDS011;3747;48.628;9.058;2024-01-30T01:52:51;6.90;;;4.43;;
7410;SDS011;3747;48.628;9.058;2024-01-30T01:55:19;5.23;;;4.73;;
7410;SDS011;3747;48.628;9.058;2024-01-30T01:57:49;5.47;;;4.30;;
7410;SDS011;3747;48.628;9.058;2024-01-30T02:00:16;5.33;;;4.67;;
7410;SDS011;3747;48.628;9.058;2024-01-30T02:02:45;5.30;;;4.27;;
7410;SDS011;3747;48.628;9.058;2024-01-30T02:05:12;5.57;;;4.23;;
7410;SDS011;3747;48.628;9.058;2024-01-30T02:07:40;4.30;;;3.90;;
7410;SDS011;3747;48.628;9.058;2024-01-30T02:10:07;4.57;;;3.90;;
7410;SDS011;3747;48.628;9.058;2024-01-30T02:12:34;4.93;;;3.40;;
7410;SDS011;3747;48.628;9.058;2024-01-30T02:15:01;4.33;;;3.73;;
7410;SDS011;3747;48.628;9.058;2024-01-30T02:17:29;4.87;;;3.90;;
7410;SDS011;3747;48.628;9.058;2024-01-30T02:19:58;4.10;;;3.40;;
7410;SDS011;3747;48.628;9.058;2024-01-30T02:22:26;4.27;;;3.30;;
7410;SDS011;3747;48.628;9.058;2024-01-30T02:24:53;4.63;;;3.27;;
7410;SDS011;3747;48.628;9.058;2024-01-30T02:27:20;4.73;;;3.67;;
7410;SDS011;3747;48.628;9.058;2024-01-30T02:29:47;7.87;;;4.80;;
7410;SDS011;3747;48.628;9.058;2024-01-30T02:32:13;9.50;;;7.83;;
7410;SDS011;3747;48.628;9.058;2024-01-30T02:34:40;8.07;;;6.03;;
7410;SDS011;3747;48.628;9.058;2024-01-30T02:37:07;5.33;;;3.67;;
7410;SDS011;3747;48.628;9.058;2024-01-30T02:39:35;4.20;;;3.57;;
7410;SDS011;3747;48.628;9.058;2024-01-30T02:42:01;4.33;;;3.67;;
7410;SDS011;3747;48.628;9.058;2024-01-30T02:44:28;5.80;;;3.90;;
7410;SDS011;3747;48.628;9.058;2024-01-30T02:46:55;3.80;;;3.40;;
7410;SDS011;3747;48.628;9.058;2024-01-30T02:49:21;5.30;;;4.13;;
7410;SDS011;3747;48.628;9.058;2024-01-30T02:51:48;4.53;;;3.70;;
7410;SDS011;3747;48.628;9.058;2024-01-30T02:54:15;4.90;;;4.27;;
7410;SDS011;3747;48.628;9.058;2024-01-30T02:56:43;4.57;;;3.53;;
7410;SDS011;3747;48.628;9.058;2024-01-30T02:59:10;3.93;;;3.20;;
7410;SDS011;3747;48.628;9.058;2024-01-30T03:01:42;5.17;;;3.40;;
7410;SDS011;3747;48.628;9.058;2024-01-30T03:04:09;5.23;;;3.80;;
7410;SDS011;3747;48.628;9.058;2024-01-30T03:06:36;4.80;;;3.77;;
7410;SDS011;3747;48.628;9.058;2024-01-30T03:09:02;3.50;;;3.20;;
7410;SDS011;3747;48.628;9.058;2024-01-30T03:11:30;3.97;;;3.43;;
7410;SDS011;3747;48.628;9.058;2024-01-30T03:13:58;4.77;;;3.60;;
7410;SDS011;3747;48.628;9.058;2024-01-30T03:16:24;4.63;;;3.20;;
7410;SDS011;3747;48.628;9.058;2024-01-30T03:18:51;5.43;;;3.00;;
7410;SDS011;3747;48.628;9.058;2024-01-30T03:21:18;3.67;;;3.37;;
7410;SDS011;3747;48.628;9.058;2024-01-30T03:23:44;18.00;;;12.93;;
7410;SDS011;3747;48.628;9.058;2024-01-30T03:26:11;26.33;;;14.57;;
7410;SDS011;3747;48.628;9.058;2024-01-30T03:28:39;9.43;;;5.50;;
7410;SDS011;3747;48.628;9.058;2024-01-30T03:31:07;8.13;;;5.57;;
7410;SDS011;3747;48.628;9.058;2024-01-30T03:33:36;7.80;;;5.30;;
7410;SDS011;3747;48.628;9.058;2024-01-30T03:36:04;6.53;;;4.43;;
7410;SDS011;3747;48.628;9.058;2024-01-30T03:38:31;4.80;;;3.07;;
7410;SDS011;3747;48.628;9.058;2024-01-30T03:40:58;2.77;;;2.50;;
7410;SDS011;3747;48.628;9.058;2024-01-30T03:43:25;4.33;;;3.00;;
7410;SDS011;3747;48.628;9.058;2024-01-30T03:45:52;3.27;;;2.70;;
7410;SDS011;3747;48.628;9.058;2024-01-30T03:48:20;4.07;;;3.67;;
7410;SDS011;3747;48.628;9.058;2024-01-30T03:50:47;3.90;;;3.00;;
7410;SDS011;3747;48.628;9.058;2024-01-30T03:53:14;3.77;;;3.07;;
7410;SDS011;3747;48.628;9.058;2024-01-30T03:55:40;3.13;;;2.83;;
7410;SDS011;3747;48.628;9.058;2024-01-30T03:58:07;4.30;;;3.00;;
7410;SDS011;3747;48.628;9.058;2024-01-30T04:00:34;3.70;;;3.20;;
7410;SDS011;3747;48.628;9.058;2024-01-30T04:03:01;6.73;;;4.47;;
7410;SDS011;3747;48.628;9.058;2024-01-30T04:05:29;6.63;;;4.50;;
7410;SDS011;3747;48.628;9.058;2024-01-30T04:07:56;5.13;;;4.63;;
7410;SDS011;3747;48.628;9.058;2024-01-30T04:10:23;5.67;;;4.57;;
7410;SDS011;3747;48.628;9.058;2024-01-30T04:12:49;5.60;;;5.10;;
7410;SDS011;3747;48.628;9.058;2024-01-30T04:15:16;7.27;;;5.00;;
7410;SDS011;3747;48.628;9.058;2024-01-30T04:17:43;6.10;;;4.50;;
7410;SDS011;3747;48.628;9.058;2024-01-30T04:20:13;6.97;;;5.43;;
7410;SDS011;3747;48.628;9.058;2024-01-30T04:22:43;7.70;;;4.63;;
7410;SDS011;3747;48.628;9.058;2024-01-30T04:25:09;7.57;;;4.80;;
7410;SDS011;3747;48.628;9.058;2024-01-30T04:27:36;5.43;;;4.93;;
7410;SDS011;3747;48.628;9.058;2024-01-30T04:30:03;6.83;;;5.03;;
7410;SDS011;3747;48.628;9.058;2024-01-30T04:32:31;5.20;;;4.57;;
7410;SDS011;3747;48.628;9.058;2024-01-30T04:34:58;6.03;;;4.43;;
7410;SDS011;3747;48.628;9.058;2024-01-30T04:37:25;5.93;;;4.97;;
7410;SDS011;3747;48.628;9.058;2024-01-30T04:39:53;6.77;;;4.80;;
7410;SDS011;3747;48.628;9.058;2024-01-30T04:42:19;8.53;;;6.33;;
7410;SDS011;3747;48.628;9.058;2024-01-30T04:44:46;6.27;;;5.10;;
7410;SDS011;3747;48.628;9.058;2024-01-30T04:47:13;6.43;;;5.20;;
7410;SDS011;3747;48.628;9.058;2024-01-30T04:49:39;6.33;;;5.17;;
7410;SDS011;3747;48.628;9.058;2024-01-30T04:52:06;6.30;;;5.13;;
7410;SDS011;3747;48.628;9.058;2024-01-30T04:54:33;10.57;;;6.60;;
7410;SDS011;3747;48.628;9.058;2024-01-30T04:57:02;9.30;;;6.40;;
7410;SDS011;3747;48.628;9.058;2024-01-30T04:59:30;7.27;;;5.90;;
7410;SDS011;3747;48.628;9.058;2024-01-30T05:01:57;6.07;;;5.47;;
7410;SDS011;3747;48.628;9.058;2024-01-30T05:04:24;6.33;;;5.13;;
7410;SDS011;3747;48.628;9.058;2024-01-30T05:06:50;9.73;;;6.07;;
7410;SDS011;3747;48.628;9.058;2024-01-30T05:09:18;6.87;;;5.67;;
7410;SDS011;3747;48.628;9.058;2024-01-30T05:11:45;6.43;;;5.53;;
7410;SDS011;3747;48.628;9.058;2024-01-30T05:14:13;6.17;;;5.53;;
7410;SDS011;3747;48.628;9.058;2024-01-30T05:16:40;8.63;;;7.73;;
7410;SDS011;3747;48.628;9.058;2024-01-30T05:19:07;6.43;;;5.47;;
7410;SDS011;3747;48.628;9.058;2024-01-30T05:21:34;7.77;;;5.00;;
7410;SDS011;3747;48.628;9.058;2024-01-30T05:24:01;5.67;;;4.00;;
7410;SDS011;3747;48.628;9.058;2024-01-30T05:26:28;4.47;;;4.07;;
7410;SDS011;3747;48.628;9.058;2024-01-30T05:28:55;5.40;;;4.07;;
7410;SDS011;3747;48.628;9.058;2024-01-30T05:31:24;5.37;;;4.17;;
7410;SDS011;3747;48.628;9.058;2024-01-30T05:33:52;5.90;;;4.13;;
7410;SDS011;3747;48.628;9.058;2024-01-30T05:36:19;6.10;;;4.57;;
7410;SDS011;3747;48.628;9.058;2024-01-30T05:38:46;5.20;;;4.10;;
7410;SDS011;3747;48.628;9.058;2024-01-30T05:41:13;4.67;;;4.13;;
7410;SDS011;3747;48.628;9.058;2024-01-30T05:43:40;6.77;;;4.70;;
7410;SDS011;3747;48.628;9.058;2024-01-30T05:46:06;6.40;;;4.50;;
7410;SDS011;3747;48.628;9.058;2024-01-30T05:48:35;5.67;;;4.50;;
7410;SDS011;3747;48.628;9.058;2024-01-30T05:51:01;6.77;;;4.40;;
7410;SDS011;3747;48.628;9.058;2024-01-30T05:53:29;4.63;;;4.23;;
7410;SDS011;3747;48.628;9.058;2024-01-30T05:55:55;5.50;;;4.00;;
7410;SDS011;3747;48.628;9.058;2024-01-30T05:58:22;5.20;;;4.07;;
7410;SDS011;3747;48.628;9.058;2024-01-30T06:00:49;5.90;;;4.67;;
7410;SDS011;3747;48.628;9.058;2024-01-30T06:03:15;5.60;;;4.50;;
7410;SDS011;3747;48.628;9.058;2024-01-30T06:05:43;4.70;;;4.27;;
7410;SDS011;3747;48.628;9.058;2024-01-30T06:08:10;4.17;;;3.77;;
7410;SDS011;3747;48.628;9.058;2024-01-30T06:10:37;4.70;;;3.77;;
7410;SDS011;3747;48.628;9.058;2024-01-30T06:13:04;5.13;;;4.67;;
7410;SDS011;3747;48.628;9.058;2024-01-30T06:15:30;4.73;;;3.83;;
7410;SDS011;3747;48.628;9.058;2024-01-30T06:17:57;4.13;;;3.73;;
7410;SDS011;3747;48.628;9.058;2024-01-30T06:20:24;3.60;;;3.30;;
7410;SDS011;3747;48.628;9.058;2024-01-30T06:22:52;4.40;;;4.00;;
7410;SDS011;3747;48.628;9.058;2024-01-30T06:25:19;7.63;;;5.73;;
7410;SDS011;3747;48.628;9.058;2024-01-30T06:27:45;7.13;;;5.23;;
7410;SDS011;3747;48.628;9.058;2024-01-30T06:30:12;6.37;;;5.10;;
7410;SDS011;3747;48.628;9.058;2024-01-30T06:32:39;8.57;;;5.03;;
7410;SDS011;3747;48.628;9.058;2024-01-30T06:35:06;7.07;;;4.93;;
7410;SDS011;3747;48.628;9.058;2024-01-30T06:37:35;6.40;;;5.23;;
7410;SDS011;3747;48.628;9.058;2024-01-30T06:40:03;5.17;;;4.63;;
7410;SDS011;3747;48.628;9.058;2024-01-30T06:42:31;5.23;;;4.70;;
7410;SDS011;3747;48.628;9.058;2024-01-30T06:44:58;5.77;;;4.30;;
7410;SDS011;3747;48.628;9.058;2024-01-30T06:47:24;5.23;;;4.30;;
7410;SDS011;3747;48.628;9.058;2024-01-30T06:49:51;5.00;;;4.50;;
7410;SDS011;3747;48.628;9.058;2024-01-30T06:52:17;5.00;;;4.10;;
7410;SDS011;3747;48.628;9.058;2024-01-30T06:54:44;5.00;;;3.63;;
7410;SDS011;3747;48.628;9.058;2024-01-30T06:57:12;4.13;;;3.73;;
7410;SDS011;3747;48.628;9.058;2024-01-30T06:59:39;10.77;;;7.67;;
7410;SDS011;3747;48.628;9.058;2024-01-30T07:02:08;10.57;;;8.00;;
7410;SDS011;3747;48.628;9.058;2024-01-30T07:04:35;9.80;;;5.53;;
7410;SDS011;3747;48.628;9.058;2024-01-30T07:07:02;5.97;;;5.37;;
7410;SDS011;3747;48.628;9.058;2024-01-30T07:09:30;7.30;;;4.87;;
7410;SDS011;3747;48.628;9.058;2024-01-30T07:11:57;7.13;;;4.70;;
7410;SDS011;3747;48.628;9.058;2024-01-30T07:14:25;5.00;;;3.90;;
7410;SDS011;3747;48.628;9.058;2024-01-30T07:16:52;4.47;;;4.07;;
7410;SDS011;3747;48.628;9.058;2024-01-30T07:19:18;4.30;;;3.90;;
7410;SDS011;3747;48.628;9.058;2024-01-30T07:21:45;5.43;;;4.00;;
7410;SDS011;3747;48.628;9.058;2024-01-30T07:24:12;4.53;;;3.57;;
7410;SDS011;3747;48.628;9.058;2024-01-30T07:26:39;5.37;;;3.87;;
7410;SDS011;3747;48.628;9.058;2024-01-30T07:29:06;4.07;;;3.67;;
7410;SDS011;3747;48.628;9.058;2024-01-30T07:31:34;3.67;;;3.30;;
7410;SDS011;3747;48.628;9.058;2024-01-30T07:34:00;4.50;;;3.87;;
7410;SDS011;3747;48.628;9.058;2024-01-30T07:36:28;4.63;;;4.13;;
7410;SDS011;3747;48.628;9.058;2024-01-30T07:38:55;4.00;;;3.60;;
7410;SDS011;3747;48.628;9.058;2024-01-30T07:41:21;4.57;;;3.47;;
7410;SDS011;3747;48.628;9.058;2024-01-30T07:43:50;4.93;;;3.43;;
7410;SDS011;3747;48.628;9.058;2024-01-30T07:46:17;4.73;;;4.30;;
7410;SDS011;3747;48.628;9.058;2024-01-30T07:48:45;4.97;;;4.00;;
7410;SDS011;3747;48.628;9.058;2024-01-30T07:51:12;6.17;;;4.33;;
7410;SDS011;3747;48.628;9.058;2024-01-30T07:53:38;4.47;;;4.03;;
7410;SDS011;3747;48.628;9.058;2024-01-30T07:56:06;6.37;;;4.30;;
7410;SDS011;3747;48.628;9.058;2024-01-30T07:58:33;5.33;;;4.00;;
7410;SDS011;3747;48.628;9.058;2024-01-30T08:01:00;5.10;;;4.07;;
7410;SDS011;3747;48.628;9.058;2024-01-30T08:03:27;9.90;;;4.93;;
7410;SDS011;3747;48.628;9.058;2024-01-30T08:05:55;5.03;;;4.53;;
7410;SDS011;3747;48.628;9.058;2024-01-30T08:08:21;4.83;;;4.17;;
7410;SDS011;3747;48.628;9.058;2024-01-30T08:10:48;4.97;;;3.40;;
7410;SDS011;3747;48.628;9.058;2024-01-30T08:13:15;6.50;;;3.93;;
7410;SDS011;3747;48.628;9.058;2024-01-30T08:15:41;5.40;;;4.10;;
7410;SDS011;3747;48.628;9.058;2024-01-30T08:18:08;4.20;;;3.77;;
7410;SDS011;3747;48.628;9.058;2024-01-30T08:20:35;3.70;;;3.13;;
7410;SDS011;3747;48.628;9.058;2024-01-30T08:23:03;4.00;;;3.33;;
7410;SDS011;3747;48.628;9.058;2024-01-30T08:25:30;4.00;;;3.60;;
7410;SDS011;3747;48.628;9.058;2024-01-30T08:27:57;4.00;;;3.60;;
7410;SDS011;3747;48.628;9.058;2024-01-30T08:30:23;3.40;;;3.10;;
7410;SDS011;3747;48.628;9.058;2024-01-30T08:32:50;4.37;;;3.20;;
7410;SDS011;3747;48.628;9.058;2024-01-30T08:35:16;4.37;;;3.23;;
7410;SDS011;3747;48.628;9.058;2024-01-30T08:37:43;5.80;;;3.37;;
7410;SDS011;3747;48.628;9.058;2024-01-30T08:40:11;3.87;;;3.47;;
7410;SDS011;3747;48.628;9.058;2024-01-30T08:42:38;3.20;;;2.90;;
7410;SDS011;3747;48.628;9.058;2024-01-30T08:45:05;6.50;;;3.30;;
7410;SDS011;3747;48.628;9.058;2024-01-30T08:47:33;3.80;;;3.00;;
7410;SDS011;3747;48.628;9.058;2024-01-30T08:50:00;3.00;;;2.70;;
7410;SDS011;3747;48.628;9.058;2024-01-30T08:52:26;4.33;;;2.80;;
7410;SDS011;3747;48.628;9.058;2024-01-30T08:54:53;6.60;;;2.33;;
7410;SDS011;3747;48.628;9.058;2024-01-30T08:57:21;2.73;;;2.30;;
7410;SDS011;3747;48.628;9.058;2024-01-30T08:59:48;3.77;;;2.70;;
7410;SDS011;3747;48.628;9.058;2024-01-30T09:02:14;4.47;;;2.63;;
7410;SDS011;3747;48.628;9.058;2024-01-30T09:04:43;3.10;;;2.50;;
7410;SDS011;3747;48.628;9.058;2024-01-30T09:07:09;2.47;;;2.27;;
7410;SDS011;3747;48.628;9.058;2024-01-30T09:09:38;4.43;;;2.73;;
7410;SDS011;3747;48.628;9.058;2024-01-30T09:12:06;3.93;;;3.10;;
7410;SDS011;3747;48.628;9.058;2024-01-30T09:14:35;2.60;;;2.40;;
7410;SDS011;3747;48.628;9.058;2024-01-30T09:17:02;2.77;;;2.30;;
7410;SDS011;3747;48.628;9.058;2024-01-30T09:19:30;3.60;;;2.87;;
7410;SDS011;3747;48.628;9.058;2024-01-30T09:21:56;3.50;;;2.70;;
7410;SDS011;3747;48.628;9.058;2024-01-30T09:24:23;3.07;;;2.80;;
7410;SDS011;3747;48.628;9.058;2024-01-30T09:26:51;7.60;;;2.63;;
7410;SDS011;3747;48.628;9.058;2024-01-30T09:29:17;1.93;;;1.80;;
7410;SDS011;3747;48.628;9.058;2024-01-30T09:31:45;4.70;;;2.47;;
7410;SDS011;3747;48.628;9.058;2024-01-30T09:34:12;3.30;;;2.37;;
7410;SDS011;3747;48.628;9.058;2024-01-30T09:36:39;2.37;;;2.10;;
7410;SDS011;3747;48.628;9.058;2024-01-30T09:39:06;1.63;;;1.53;;
7410;SDS011;3747;48.628;9.058;2024-01-30T09:41:33;3.37;;;1.43;;
7410;SDS011;3747;48.628;9.058;2024-01-30T09:44:07;4.37;;;2.00;;
7410;SDS011;3747;48.628;9.058;2024-01-30T09:46:36;2.43;;;1.80;;
7410;SDS011;3747;48.628;9.058;2024-01-30T09:49:04;1.87;;;1.63;;
7410;SDS011;3747;48.628;9.058;2024-01-30T09:51:34;1.70;;;1.60;;
7410;SDS011;3747;48.628;9.058;2024-01-30T09:54:01;2.13;;;1.73;;
7410;SDS011;3747;48.628;9.058;2024-01-30T09:56:28;2.27;;;1.90;;
7410;SDS011;3747;48.628;9.058;2024-01-30T09:58:55;2.03;;;1.70;;
7410;SDS011;3747;48.628;9.058;2024-01-30T10:01:22;2.17;;;1.70;;
7410;SDS011;3747;48.628;9.058;2024-01-30T10:03:50;2.30;;;1.40;;
7410;SDS011;3747;48.628;9.058;2024-01-30T10:06:19;4.03;;;1.63;;
7410;SDS011;3747;48.628;9.058;2024-01-30T10:08:47;4.00;;;1.70;;
7410;SDS011;3747;48.628;9.058;2024-01-30T10:11:14;3.40;;;1.93;;
7410;SDS011;3747;48.628;9.058;2024-01-30T10:13:40;3.63;;;1.90;;
7410;SDS011;3747;48.628;9.058;2024-01-30T10:16:07;1.90;;;1.80;;
7410;SDS011;3747;48.628;9.058;2024-01-30T10:18:34;4.67;;;1.57;;
7410;SDS011;3747;48.628;9.058;2024-01-30T10:21:00;3.00;;;1.73;;
7410;SDS011;3747;48.628;9.058;2024-01-30T10:23:29;2.20;;;2.00;;
7410;SDS011;3747;48.628;9.058;2024-01-30T10:25:56;2.50;;;1.43;;
7410;SDS011;3747;48.628;9.058;2024-01-30T10:28:23;2.20;;;1.30;;
7410;SDS011;3747;48.628;9.058;2024-01-30T10:30:57;2.57;;;1.50;;
7410;SDS011;3747;48.628;9.058;2024-01-30T10:33:25;2.03;;;1.77;;
7410;SDS011;3747;48.628;9.058;2024-01-30T10:35:53;1.40;;;1.30;;
7410;SDS011;3747;48.628;9.058;2024-01-30T10:38:22;2.93;;;1.60;;
7410;SDS011;3747;48.628;9.058;2024-01-30T10:40:53;2.93;;;1.47;;
7410;SDS011;3747;48.628;9.058;2024-01-30T10:43:23;1.70;;;1.60;;
7410;SDS011;3747;48.628;9.058;2024-01-30T10:45:54;2.03;;;1.63;;
7410;SDS011;3747;48.628;9.058;2024-01-30T10:48:24;1.37;;;1.27;;
7410;SDS011;3747;48.628;9.058;2024-01-30T10:50:56;1.83;;;1.47;;
7410;SDS011;3747;48.628;9.058;2024-01-30T10:53:25;1.70;;;1.60;;
7410;SDS011;3747;48.628;9.058;2024-01-30T10:55:55;2.13;;;1.40;;
7410;SDS011;3747;48.628;9.058;2024-01-30T10:58:23;1.80;;;1.20;;
7410;SDS011;3747;48.628;9.058;2024-01-30T11:00:51;2.00;;;1.37;;
7410;SDS011;3747;48.628;9.058;2024-01-30T11:03:19;2.10;;;1.37;;
7410;SDS011;3747;48.628;9.058;2024-01-30T11:05:48;1.60;;;1.50;;
7410;SDS011;3747;48.628;9.058;2024-01-30T11:08:22;3.63;;;1.70;;
7410;SDS011;3747;48.628;9.058;2024-01-30T11:10:54;2.30;;;1.57;;
7410;SDS011;3747;48.628;9.058;2024-01-30T11:13:26;2.17;;;1.40;;
7410;SDS011;3747;48.628;9.058;2024-01-30T11:15:54;2.50;;;1.30;;
7410;SDS011;3747;48.628;9.058;2024-01-30T11:18:24;4.30;;;1.57;;
7410;SDS011;3747;48.628;9.058;2024-01-30T11:20:51;2.37;;;1.67;;
7410;SDS011;3747;48.628;9.058;2024-01-30T11:23:18;3.50;;;1.37;;
7410;SDS011;3747;48.628;9.058;2024-01-30T11:25:48;1.63;;;1.53;;
7410;SDS011;3747;48.628;9.058;2024-01-30T11:28:16;1.47;;;1.30;;
7410;SDS011;3747;48.628;9.058;2024-01-30T11:30:43;1.50;;;1.40;;
7410;SDS011;3747;48.628;9.058;2024-01-30T11:33:12;1.57;;;1.47;;
7410;SDS011;3747;48.628;9.058;2024-01-30T11:35:40;1.87;;;1.50;;
7410;SDS011;3747;48.628;9.058;2024-01-30T11:38:08;1.77;;;1.67;;
7410;SDS011;3747;48.628;9.058;2024-01-30T11:40:37;2.43;;;1.60;;
7410;SDS011;3747;48.628;9.058;2024-01-30T11:43:04;2.07;;;1.50;;
7410;SDS011;3747;48.628;9.058;2024-01-30T11:45:34;2.40;;;1.60;;
7410;SDS011;3747;48.628;9.058;2024-01-30T11:48:01;2.77;;;1.23;;
7410;SDS011;3747;48.628;9.058;2024-01-30T11:50:29;2.00;;;1.70;;
7410;SDS011;3747;48.628;9.058;2024-01-30T11:52:56;1.90;;;1.50;;
7410;SDS011;3747;48.628;9.058;2024-01-30T11:55:24;2.03;;;1.83;;
7410;SDS011;3747;48.628;9.058;2024-01-30T11:57:50;3.63;;;1.97;;
7410;SDS011;3747;48.628;9.058;2024-01-30T12:00:18;3.17;;;1.50;;
7410;SDS011;3747;48.628;9.058;2024-01-30T12:02:49;2.30;;;1.70;;
7410;SDS011;3747;48.628;9.058;2024-01-30T12:05:20;3.37;;;1.87;;
7410;SDS011;3747;48.628;9.058;2024-01-30T12:07:48;1.90;;;1.60;;
7410;SDS011;3747;48.628;9.058;2024-01-30T12:10:14;2.67;;;1.90;;
7410;SDS011;3747;48.628;9.058;2024-01-30T12:12:43;1.87;;;1.50;;
7410;SDS011;3747;48.628;9.058;2024-01-30T12:15:11;2.13;;;1.50;;
7410;SDS011;3747;48.628;9.058;2024-01-30T12:17:39;2.20;;;1.40;;
7410;SDS011;3747;48.628;9.058;2024-01-30T12:20:08;3.43;;;1.80;;
7410;SDS011;3747;48.628;9.058;2024-01-30T12:22:36;2.27;;;1.70;;
7410;SDS011;3747;48.628;9.058;2024-01-30T12:25:04;1.87;;;1.70;;
7410;SDS011;3747;48.628;9.058;2024-01-30T12:27:31;1.53;;;1.43;;
7410;SDS011;3747;48.628;9.058;2024-01-30T12:29:58;3.97;;;1.80;;
7410;SDS011;3747;48.628;9.058;2024-01-30T12:32:25;2.73;;;1.50;;
7410;SDS011;3747;48.628;9.058;2024-01-30T12:34:54;2.23;;;1.77;;
7410;SDS011;3747;48.628;9.058;2024-01-30T12:37:23;2.63;;;1.67;;
7410;SDS011;3747;48.628;9.058;2024-01-30T12:39:51;1.97;;;1.80;;
7410;SDS011;3747;48.628;9.058;2024-01-30T12:42:19;2.43;;;1.60;;
7410;SDS011;3747;48.628;9.058;2024-01-30T12:44:46;2.33;;;1.40;;
7410;SDS011;3747;48.628;9.058;2024-01-30T12:47:13;1.70;;;1.57;;
7410;SDS011;3747;48.628;9.058;2024-01-30T12:49:41;1.83;;;1.63;;
7410;SDS011;3747;48.628;9.058;2024-01-30T12:52:08;1.97;;;1.87;;
7410;SDS011;3747;48.628;9.058;2024-01-30T12:54:36;2.37;;;1.50;;
7410;SDS011;3747;48.628;9.058;2024-01-30T12:57:02;2.13;;;1.40;;
7410;SDS011;3747;48.628;9.058;2024-01-30T12:59:29;2.90;;;1.80;;
7410;SDS011;3747;48.628;9.058;2024-01-30T13:01:56;3.77;;;1.77;;
7410;SDS011;3747;48.628;9.058;2024-01-30T13:04:25;2.17;;;1.80;;
7410;SDS011;3747;48.628;9.058;2024-01-30T13:06:51;2.77;;;1.90;;
7410;SDS011;3747;48.628;9.058;2024-01-30T13:09:18;1.97;;;1.77;;
7410;SDS011;3747;48.628;9.058;2024-01-30T13:11:46;1.70;;;1.33;;
7410;SDS011;3747;48.628;9.058;2024-01-30T13:14:13;1.97;;;1.77;;
7410;SDS011;3747;48.628;9.058;2024-01-30T13:16:39;4.53;;;2.00;;
7410;SDS011;3747;48.628;9.058;2024-01-30T13:19:06;3.83;;;2.00;;
7410;SDS011;3747;48.628;9.058;2024-01-30T13:21:33;4.77;;;1.90;;
7410;SDS011;3747;48.628;9.058;2024-01-30T13:23:59;4.43;;;1.83;;
7410;SDS011;3747;48.628;9.058;2024-01-30T13:26:26;5.10;;;2.10;;
7410;SDS011;3747;48.628;9.058;2024-01-30T13:28:54;4.30;;;2.10;;
7410;SDS011;3747;48.628;9.058;2024-01-30T13:31:21;3.43;;;1.90;;
7410;SDS011;3747;48.628;9.058;2024-01-30T13:33:48;3.87;;;2.40;;
7410;SDS011;3747;48.628;9.058;2024-01-30T13:36:15;3.40;;;2.87;;
7410;SDS011;3747;48.628;9.058;2024-01-30T13:38:41;2.23;;;1.70;;
7410;SDS011;3747;48.628;9.058;2024-01-30T13:41:08;2.17;;;1.80;;
7410;SDS011;3747;48.628;9.058;2024-01-30T13:43:35;1.67;;;1.53;;
7410;SDS011;3747;48.628;9.058;2024-01-30T13:46:03;1.90;;;1.80;;
7410;SDS011;3747;48.628;9.058;2024-01-30T13:48:30;2.10;;;1.90;;
7410;SDS011;3747;48.628;9.058;2024-01-30T13:50:57;1.90;;;1.63;;
7410;SDS011;3747;48.628;9.058;2024-01-30T13:53:24;1.90;;;1.80;;
7410;SDS011;3747;48.628;9.058;2024-01-30T13:55:51;2.43;;;2.03;;
7410;SDS011;3747;48.628;9.058;2024-01-30T13:58:17;5.63;;;1.87;;
7410;SDS011;3747;48.628;9.058;2024-01-30T14:00:44;2.83;;;1.80;;
7410;SDS011;3747;48.628;9.058;2024-01-30T14:03:12;1.90;;;1.67;;
7410;SDS011;3747;48.628;9.058;2024-01-30T14:05:39;2.83;;;1.97;;
7410;SDS011;3747;48.628;9.058;2024-01-30T14:08:06;2.40;;;2.00;;
7410;SDS011;3747;48.628;9.058;2024-01-30T14:10:33;3.50;;;1.60;;
7410;SDS011;3747;48.628;9.058;2024-01-30T14:13:00;2.57;;;2.13;;
7410;SDS011;3747;48.628;9.058;2024-01-30T14:15:27;2.30;;;2.10;;
7410;SDS011;3747;48.628;9.058;2024-01-30T14:17:54;3.67;;;2.03;;
7410;SDS011;3747;48.628;9.058;2024-01-30T14:20:22;4.63;;;2.40;;
7410;SDS011;3747;48.628;9.058;2024-01-30T14:22:48;3.53;;;2.23;;
7410;SDS011;3747;48.628;9.058;2024-01-30T14:25:15;2.17;;;1.97;;
7410;SDS011;3747;48.628;9.058;2024-01-30T14:27:42;3.40;;;2.10;;
7410;SDS011;3747;48.628;9.058;2024-01-30T14:30:09;2.10;;;1.90;;
7410;SDS011;3747;48.628;9.058;2024-01-30T14:32:36;3.53;;;2.00;;
7410;SDS011;3747;48.628;9.058;2024-01-30T14:35:05;1.80;;;1.70;;
7410;SDS011;3747;48.628;9.058;2024-01-30T14:37:35;2.00;;;1.80;;
7410;SDS011;3747;48.628;9.058;2024-01-30T14:40:01;2.60;;;2.17;;
7410;SDS011;3747;48.628;9.058;2024-01-30T14:42:29;4.40;;;2.20;;
7410;SDS011;3747;48.628;9.058;2024-01-30T14:44:57;3.03;;;1.97;;
7410;SDS011;3747;48.628;9.058;2024-01-30T14:47:24;3.63;;;2.43;;
7410;SDS011;3747;48.628;9.058;2024-01-30T14:49:51;3.07;;;1.97;;
7410;SDS011;3747;48.628;9.058;2024-01-30T14:52:18;3.03;;;2.10;;
7410;SDS011;3747;48.628;9.058;2024-01-30T14:54:46;2.40;;;2.20;;
7410;SDS011;3747;48.628;9.058;2024-01-30T14:57:13;4.27;;;2.23;;
7410;SDS011;3747;48.628;9.058;2024-01-30T14:59:39;4.67;;;2.40;;
7410;SDS011;3747;48.628;9.058;2024-01-30T15:02:06;2.83;;;2.23;;
7410;SDS011;3747;48.628;9.058;2024-01-30T15:04:33;3.17;;;2.57;;
7410;SDS011;3747;48.628;9.058;2024-01-30T15:07:00;3.27;;;2.27;;
7410;SDS011;3747;48.628;9.058;2024-01-30T15:09:27;3.07;;;2.60;;
7410;SDS011;3747;48.628;9.058;2024-01-30T15:11:55;3.40;;;2.33;;
7410;SDS011;3747;48.628;9.058;2024-01-30T15:14:22;2.80;;;2.47;;